Helmsley, United Kingdom
Current Conditions -  °F | °C
As of 1:50 AM on Friday 21 Nov 2014 (Local Time) from EGXZ Reporting Station
Haze Haze  
Wind Chill:   Ceiling: 5000
Heat Index:   Visibility: 1.9mi
Dew Point:   Wind: 3mph
Humidity: 100%   Direction: 330°NNW
Pressure: 30.24"   Gusts: NA
Location:  54.25°N, 1.06°W
Report Text: EGXZ 210150Z AUTO 33003KT 3100 BR BKN050/// 06/06 Q1024
Loading
Personal Weather Stations






























Interactive Weather Map New forecast layout! Learn more

10-Day Weather Forecast

Advertisements
Track Severe Weather on mobile